Time;durP1;ratioP1;P1;durP2;ratioP2;P2;SDS_P1;SDS_P2;PMS_P1;PMS_P2;Temp;Humidity;BMP_temperature;BMP_pressure;BME280_temperature;BME280_humidity;BME280_pressure;Samples;Min_cycle;Max_cycle;Signal;HPM_P1;HPM_P2
2021/09/08 00:00:42;;;;;;;13.80;6.18;;;;;;;24.06;45.23;101662.34;5002608;28;20040;-79
2021/09/08 00:03:07;;;;;;;13.50;7.15;;;;;;;24.05;44.82;101659.78;5002776;28;20128;-81
2021/09/08 00:05:33;;;;;;;10.20;5.82;;;;;;;24.04;44.93;101660.81;5002635;28;20465;-80
2021/09/08 00:07:58;;;;;;;13.73;6.45;;;;;;;24.04;44.69;101658.94;5018982;28;20022;-80
2021/09/08 00:10:24;;;;;;;11.40;5.57;;;;;;;24.01;45.17;101644.81;5002281;28;20035;-79
2021/09/08 00:12:49;;;;;;;12.63;6.50;;;;;;;24.04;45.56;101658.09;5018457;28;20034;-79
2021/09/08 00:15:15;;;;;;;14.73;6.05;;;;;;;24.04;44.63;101652.59;5015921;28;20400;-80
2021/09/08 00:17:40;;;;;;;12.80;6.05;;;;;;;24.00;45.47;101643.09;5038639;28;20033;-79
2021/09/08 00:20:08;;;;;;;13.15;6.03;;;;;;;24.00;45.06;101643.09;5038165;28;20021;-79
2021/09/08 00:25:55;;;;;;;15.15;6.57;;;;;;;23.93;45.57;101631.22;5056568;28;20039;-79
2021/09/08 00:28:21;;;;;;;11.85;6.18;;;;;;;23.92;45.11;101635.88;5038550;28;20029;-79
2021/09/08 00:30:46;;;;;;;15.45;6.85;;;;;;;23.91;45.02;101633.34;5021578;28;20059;-79
2021/09/08 00:33:11;;;;;;;11.85;5.93;;;;;;;23.90;45.17;101635.22;5021670;28;20393;-79
2021/09/08 00:35:37;;;;;;;10.50;5.75;;;;;;;23.88;44.83;101633.72;5021610;28;20040;-81
2021/09/08 00:38:02;;;;;;;11.95;6.15;;;;;;;23.85;44.87;101645.06;5021422;28;20036;-79
2021/09/08 00:40:27;;;;;;;17.00;5.57;;;;;;;23.78;45.39;101634.88;5038175;28;20028;-79
2021/09/08 00:42:53;;;;;;;10.90;5.63;;;;;;;23.76;45.48;101636.13;5038325;28;20025;-79
2021/09/08 00:45:18;;;;;;;15.07;6.45;;;;;;;23.73;45.53;101642.00;5021003;28;20106;-78
2021/09/08 00:47:44;;;;;;;12.18;6.28;;;;;;;23.71;45.32;101628.53;5037969;28;20025;-78
2021/09/08 00:50:10;;;;;;;12.75;6.57;;;;;;;23.72;46.07;101632.97;5021665;28;20047;-78
2021/09/08 00:52:38;;;;;;;16.38;7.28;;;;;;;23.68;45.60;101626.16;5037795;28;20033;-78
2021/09/08 00:55:05;;;;;;;15.30;7.13;;;;;;;23.67;45.14;101631.84;5037721;28;20044;-78
2021/09/08 00:57:31;;;;;;;12.25;6.32;;;;;;;23.63;45.69;101636.84;5037810;28;20025;-78
2021/09/08 00:59:56;;;;;;;16.52;7.28;;;;;;;23.61;45.74;101633.47;5037249;28;20071;-79
2021/09/08 01:02:22;;;;;;;11.15;6.65;;;;;;;23.61;45.77;101633.47;5054123;28;20017;-79
2021/09/08 01:04:47;;;;;;;15.55;6.72;;;;;;;23.59;45.53;101630.06;5021283;28;20029;-79
2021/09/08 01:07:13;;;;;;;12.70;6.53;;;;;;;23.57;46.07;101626.69;5037793;28;20469;-78
2021/09/08 01:09:38;;;;;;;16.63;6.88;;;;;;;23.57;45.79;101632.16;5037463;28;20389;-79
2021/09/08 01:12:05;;;;;;;11.95;6.38;;;;;;;23.53;45.49;101624.56;5022043;28;20053;-79
2021/09/08 01:14:31;;;;;;;13.77;6.13;;;;;;;23.53;45.57;101636.34;5037335;28;20086;-78
2021/09/08 01:16:57;;;;;;;14.75;6.80;;;;;;;23.53;46.07;101630.88;5021389;28;20123;-78
2021/09/08 01:19:23;;;;;;;13.20;6.38;;;;;;;23.49;45.83;101628.69;5040700;28;20051;-79
2021/09/08 01:21:49;;;;;;;11.23;7.10;;;;;;;23.47;45.64;101631.66;5057563;28;20020;-79
2021/09/08 01:24:15;;;;;;;14.80;5.82;;;;;;;23.48;45.59;101632.50;5040791;28;20035;-79
2021/09/08 01:26:43;;;;;;;11.70;5.40;;;;;;;23.44;45.65;101626.56;5057077;28;20037;-79
2021/09/08 01:29:10;;;;;;;12.98;5.32;;;;;;;23.38;46.10;101621.84;5040105;28;20484;-79
2021/09/08 01:31:36;;;;;;;10.15;5.95;;;;;;;23.40;45.47;101625.25;5040049;28;20055;-79
2021/09/08 01:34:02;;;;;;;13.55;6.93;;;;;;;23.37;46.53;101620.13;5040783;28;20388;-79
2021/09/08 01:36:27;;;;;;;14.48;6.95;;;;;;;23.34;46.14;101619.69;5024218;28;20032;-79
2021/09/08 01:38:52;;;;;;;11.95;6.25;;;;;;;23.33;45.56;101623.44;5057803;28;20056;-79
2021/09/08 01:41:18;;;;;;;11.25;6.57;;;;;;;23.27;45.77;101619.59;5040612;28;20036;-79
2021/09/08 01:43:47;;;;;;;13.75;5.82;;;;;;;23.30;46.49;101613.75;5040787;28;20036;-79
2021/09/08 01:46:22;;;;;;;11.20;5.78;;;;;;;23.27;46.07;101616.84;5039901;28;20476;-79
2021/09/08 01:48:48;;;;;;;8.93;5.07;;;;;;;23.27;45.69;101616.84;5023480;28;20032;-79
2021/09/08 01:51:14;;;;;;;9.45;4.68;;;;;;;23.25;45.99;101610.75;5056429;28;20386;-79
2021/09/08 01:53:40;;;;;;;6.60;3.95;;;;;;;23.22;45.63;101611.13;5039956;28;20024;-79
2021/09/08 01:56:05;;;;;;;16.48;6.60;;;;;;;23.14;46.12;101608.50;5039757;28;20031;-80
2021/09/08 01:58:31;;;;;;;13.77;6.82;;;;;;;23.15;45.57;101612.91;5039885;28;20136;-80
2021/09/08 02:00:57;;;;;;;13.45;6.38;;;;;;;23.06;46.21;101594.97;5040088;28;20043;-80
2021/09/08 02:03:23;;;;;;;12.70;6.93;;;;;;;23.06;46.44;101603.16;5024231;28;20566;-79
2021/09/08 02:05:49;;;;;;;15.27;7.20;;;;;;;23.07;46.21;101602.94;5057419;28;20024;-78
2021/09/08 02:08:14;;;;;;;17.15;7.43;;;;;;;23.01;46.79;101600.13;5056502;28;20032;-78
2021/09/08 02:10:39;;;;;;;17.27;7.93;;;;;;;23.08;46.29;101604.66;5040131;28;20028;-78
2021/09/08 02:13:06;;;;;;;15.75;7.72;;;;;;;23.08;46.68;101598.34;5023053;28;20033;-78
2021/09/08 02:15:31;;;;;;;15.65;8.43;;;;;;;23.11;46.12;101601.53;5040138;28;20096;-79
2021/09/08 02:17:57;;;;;;;16.33;7.68;;;;;;;23.20;47.38;101607.72;5023350;28;20029;-78
2021/09/08 02:20:22;;;;;;;15.98;7.80;;;;;;;23.23;46.93;101596.41;5072874;28;20496;-81
2021/09/08 02:22:48;;;;;;;15.15;7.97;;;;;;;23.24;46.08;101598.09;5056159;28;20473;-78
2021/09/08 02:25:13;;;;;;;14.23;6.93;;;;;;;23.31;46.60;101603.66;5055950;28;20409;-79
2021/09/08 02:27:39;;;;;;;15.93;7.20;;;;;;;23.36;46.57;101598.44;5039648;28;20032;-79
2021/09/08 02:30:05;;;;;;;20.00;7.65;;;;;;;23.38;46.41;101599.13;5039520;28;20107;-79
2021/09/08 02:32:31;;;;;;;19.00;7.47;;;;;;;23.37;46.41;101597.38;5039284;28;20031;-81
2021/09/08 02:34:57;;;;;;;16.45;8.27;;;;;;;23.38;46.28;101593.66;5039378;28;20108;-79
2021/09/08 02:37:22;;;;;;;13.32;6.93;;;;;;;23.40;46.50;101597.88;5040704;28;20028;-79
2021/09/08 02:39:48;;;;;;;17.50;8.15;;;;;;;23.40;46.35;101589.69;5041393;28;20028;-79
2021/09/08 02:42:14;;;;;;;15.38;7.95;;;;;;;23.37;46.16;101581.84;5043341;28;20021;-79
2021/09/08 02:44:39;;;;;;;15.50;7.43;;;;;;;23.40;46.51;101580.63;5043351;28;20032;-79
2021/09/08 02:47:05;;;;;;;16.85;7.88;;;;;;;23.39;46.30;101574.34;5043389;28;20070;-79
2021/09/08 02:49:30;;;;;;;15.15;7.28;;;;;;;23.41;45.97;101583.19;5026813;28;20036;-79
2021/09/08 02:51:55;;;;;;;15.50;7.95;;;;;;;23.43;46.36;101575.63;5043155;28;20036;-79
2021/09/08 02:54:21;;;;;;;18.63;7.43;;;;;;;23.40;46.92;101576.00;5043226;28;20024;-79
2021/09/08 02:56:46;;;;;;;12.15;7.13;;;;;;;23.35;46.74;101559.31;5043368;28;20082;-79
2021/09/08 02:59:11;;;;;;;16.15;7.55;;;;;;;23.35;46.56;101578.44;5043027;28;20053;-79
2021/09/08 03:01:37;;;;;;;15.70;7.40;;;;;;;23.28;46.57;101561.16;5043480;28;20103;-79
2021/09/08 03:04:02;;;;;;;14.73;7.68;;;;;;;23.27;46.62;101570.38;5026694;28;20508;-79
2021/09/08 03:06:28;;;;;;;18.13;7.93;;;;;;;23.24;46.76;101569.91;5043183;28;20024;-79
2021/09/08 03:08:53;;;;;;;14.57;7.70;;;;;;;23.28;46.87;101572.09;5060136;28;20036;-79
2021/09/08 03:11:18;;;;;;;14.32;7.45;;;;;;;23.26;46.80;101565.09;5026432;28;20033;-79
2021/09/08 03:13:44;;;;;;;16.35;7.32;;;;;;;23.28;47.21;101572.09;5059477;28;20048;-81
2021/09/08 03:16:09;;;;;;;13.77;6.80;;;;;;;23.29;47.11;101562.81;5026127;28;20028;-79
2021/09/08 03:18:35;;;;;;;13.82;6.72;;;;;;;23.31;47.15;101555.25;5059913;28;20473;-79
2021/09/08 03:21:00;;;;;;;19.50;7.07;;;;;;;23.30;46.89;101553.59;5026488;28;20028;-79
2021/09/08 03:23:25;;;;;;;18.42;7.25;;;;;;;23.36;46.57;101565.63;5025961;28;20032;-79
2021/09/08 03:25:51;;;;;;;16.67;6.93;;;;;;;23.35;46.64;101561.19;5042627;28;20029;-79
2021/09/08 03:28:16;;;;;;;12.98;6.30;;;;;;;23.33;46.81;101561.41;5042638;28;20098;-79
2021/09/08 03:30:41;;;;;;;16.17;6.97;;;;;;;23.34;46.63;101557.59;5042276;28;20028;-79
2021/09/08 03:33:07;;;;;;;17.33;7.10;;;;;;;23.31;46.83;101554.44;5026020;28;20040;-79
2021/09/08 03:35:32;;;;;;;12.90;7.18;;;;;;;23.33;46.99;101555.94;5026386;28;20396;-79
2021/09/08 03:37:58;;;;;;;12.05;5.78;;;;;;;23.30;46.84;101559.06;5026106;28;20036;-81
2021/09/08 03:40:23;;;;;;;9.93;5.70;;;;;;;23.25;46.63;101550.59;5025902;28;20031;-79
2021/09/08 03:42:48;;;;;;;12.57;6.38;;;;;;;23.25;46.12;101567.00;5042682;28;20058;-78
2021/09/08 03:45:14;;;;;;;15.57;6.68;;;;;;;23.21;46.59;101565.69;5042662;28;20021;-78
2021/09/08 03:47:41;;;;;;;10.32;6.13;;;;;;;23.15;47.27;101556.38;5042483;28;20472;-79
2021/09/08 03:50:07;;;;;;;16.77;6.85;;;;;;;23.14;46.61;101562.84;5041852;28;20035;-79
2021/09/08 03:52:33;;;;;;;14.27;6.72;;;;;;;23.13;46.92;101563.06;5042626;28;20025;-79
2021/09/08 03:54:58;;;;;;;13.00;6.13;;;;;;;23.13;46.75;101568.53;5025905;28;20447;-79
2021/09/08 03:57:23;;;;;;;14.13;6.60;;;;;;;23.05;46.65;101560.44;5025577;28;20062;-79
2021/09/08 03:59:49;;;;;;;9.63;5.68;;;;;;;23.02;46.31;101555.38;5025742;28;20060;-79
2021/09/08 04:02:14;;;;;;;16.10;5.65;;;;;;;22.96;46.52;101559.72;5042203;28;20017;-79
2021/09/08 04:04:40;;;;;;;12.60;5.47;;;;;;;22.88;46.78;101550.78;5025805;28;20041;-79
2021/09/08 04:07:05;;;;;;;11.50;6.38;;;;;;;22.83;46.54;101556.84;5042164;28;20028;-79
2021/09/08 04:09:31;;;;;;;13.82;5.65;;;;;;;22.76;46.37;101544.09;5042363;28;20024;-79
2021/09/08 04:11:56;;;;;;;13.07;6.05;;;;;;;22.69;46.32;101543.19;5026050;28;20024;-78
2021/09/08 04:14:22;;;;;;;15.88;6.95;;;;;;;22.67;46.55;101548.00;5025570;28;20092;-78
2021/09/08 04:16:47;;;;;;;11.38;6.18;;;;;;;22.59;47.35;101538.81;5041705;28;20377;-78
2021/09/08 04:19:13;;;;;;;11.02;5.97;;;;;;;22.57;47.13;101540.06;5041645;28;20033;-78
2021/09/08 04:21:38;;;;;;;12.95;6.07;;;;;;;22.57;46.84;101540.06;5041963;28;20031;-78
2021/09/08 04:24:04;;;;;;;13.07;7.05;;;;;;;22.51;47.05;101541.66;5041752;28;20061;-78
2021/09/08 04:26:29;;;;;;;13.00;7.00;;;;;;;22.49;47.16;101543.75;5025425;28;20370;-78
2021/09/08 04:28:54;;;;;;;14.48;6.18;;;;;;;22.48;46.78;101536.59;5025302;28;20123;-78
2021/09/08 04:31:20;;;;;;;11.48;5.90;;;;;;;22.48;46.84;101541.19;5025807;28;20059;-78
2021/09/08 04:33:45;;;;;;;11.10;6.15;;;;;;;22.45;46.69;101533.38;5026188;28;20024;-78
2021/09/08 04:36:11;;;;;;;12.43;5.88;;;;;;;22.44;46.40;101535.28;5041967;28;20115;-78
2021/09/08 04:38:44;;;;;;;11.30;6.10;;;;;;;22.43;46.67;101539.03;5041944;28;20028;-78
2021/09/08 04:41:10;;;;;;;11.18;5.97;;;;;;;22.42;46.75;101531.00;5042833;28;20087;-78
2021/09/08 04:43:35;;;;;;;15.50;5.88;;;;;;;22.42;47.19;101537.34;5041724;28;20477;-78
2021/09/08 04:46:00;;;;;;;18.05;6.38;;;;;;;22.43;47.10;101535.47;5058434;28;20028;-78
2021/09/08 04:48:26;;;;;;;12.98;5.70;;;;;;;22.42;47.01;101531.88;5025149;28;20052;-80
2021/09/08 04:50:51;;;;;;;14.48;6.78;;;;;;;22.41;47.19;101540.25;5025119;28;20086;-78
2021/09/08 04:53:17;;;;;;;12.27;7.20;;;;;;;22.42;46.76;101545.53;5041524;28;20025;-78
2021/09/08 04:55:42;;;;;;;11.95;6.47;;;;;;;22.41;47.25;101541.13;5024721;28;20032;-78
2021/09/08 04:58:07;;;;;;;8.55;5.07;;;;;;;22.43;47.43;101540.91;5025141;28;20060;-78
2021/09/08 05:00:33;;;;;;;7.55;3.90;;;;;;;22.39;46.81;101540.44;5041097;28;20132;-79
2021/09/08 05:02:59;;;;;;;9.65;4.72;;;;;;;22.38;47.09;101540.63;5040593;28;20020;-78
2021/09/08 05:05:24;;;;;;;12.73;6.45;;;;;;;22.32;46.90;101533.19;5025317;28;20028;-78
2021/09/08 05:07:49;;;;;;;13.38;5.70;;;;;;;22.34;47.17;101540.16;5041966;28;20122;-78
2021/09/08 05:10:15;;;;;;;11.52;5.78;;;;;;;22.33;46.77;101537.63;5024979;28;20021;-78
2021/09/08 05:12:40;;;;;;;11.30;5.70;;;;;;;22.31;47.47;101536.94;5024871;28;20032;-78
2021/09/08 05:15:06;;;;;;;19.02;6.65;;;;;;;22.31;47.25;101526.88;5024639;28;20033;-78
2021/09/08 05:17:31;;;;;;;14.85;6.75;;;;;;;22.32;47.16;101525.84;5024928;28;20031;-78
2021/09/08 05:19:57;;;;;;;14.75;7.88;;;;;;;22.35;47.57;101525.47;5009557;28;20029;-78
2021/09/08 05:22:22;;;;;;;13.35;7.13;;;;;;;22.44;47.39;101531.69;5017279;28;20025;-78
2021/09/08 05:24:48;;;;;;;18.15;7.30;;;;;;;22.49;47.20;101531.97;5017366;28;20110;-78
2021/09/08 05:27:13;;;;;;;14.93;7.05;;;;;;;22.51;47.08;101528.00;5000965;28;20042;-78
2021/09/08 05:29:38;;;;;;;13.50;6.25;;;;;;;22.65;47.29;101537.25;5001006;28;20029;-78
2021/09/08 05:32:04;;;;;;;16.90;6.88;;;;;;;22.73;48.00;101528.09;5033957;28;20025;-78
2021/09/08 05:34:29;;;;;;;13.43;7.82;;;;;;;22.79;47.90;101527.34;5001043;28;20095;-78
2021/09/08 05:36:55;;;;;;;10.82;6.30;;;;;;;22.85;47.12;101529.31;5016773;28;20029;-78
2021/09/08 05:39:20;;;;;;;18.45;7.22;;;;;;;22.95;47.81;101525.22;5016818;28;20025;-78
2021/09/08 05:41:46;;;;;;;15.82;7.15;;;;;;;23.06;47.23;101524.72;5017096;28;20029;-79
2021/09/08 05:44:11;;;;;;;14.18;8.23;;;;;;;23.13;47.51;101519.31;5051509;28;20029;-77
2021/09/08 05:46:36;;;;;;;16.63;7.63;;;;;;;23.22;47.35;101515.44;5039883;28;20021;-77
2021/09/08 05:49:02;;;;;;;11.07;6.70;;;;;;;23.33;47.44;101516.78;5023590;28;20094;-77
2021/09/08 05:51:27;;;;;;;14.38;7.10;;;;;;;23.39;47.37;101508.69;5040176;28;20103;-77
2021/09/08 05:53:53;;;;;;;19.13;7.07;;;;;;;23.54;46.76;101517.66;5040332;28;20039;-77
2021/09/08 05:56:18;;;;;;;15.93;7.70;;;;;;;23.69;47.11;101515.69;5040279;28;20448;-77
2021/09/08 05:58:43;;;;;;;15.88;6.97;;;;;;;23.84;46.70;101522.97;5023249;28;20105;-78
2021/09/08 06:01:09;;;;;;;15.43;7.28;;;;;;;23.95;46.94;101514.22;5022569;28;20499;-79
2021/09/08 06:03:34;;;;;;;20.30;8.30;;;;;;;24.10;46.27;101517.69;5004435;28;20128;-78
2021/09/08 06:06:00;;;;;;;15.38;7.05;;;;;;;24.23;46.65;101506.84;5004385;28;20033;-77
2021/09/08 06:08:25;;;;;;;12.55;6.95;;;;;;;24.34;46.35;101509.84;5004449;28;20048;-78
2021/09/08 06:10:50;;;;;;;18.30;7.28;;;;;;;24.42;46.13;101503.38;5021237;28;20025;-78
2021/09/08 06:13:16;;;;;;;14.65;7.63;;;;;;;24.58;46.40;101516.72;5020715;28;20100;-78
2021/09/08 06:15:42;;;;;;;14.73;6.97;;;;;;;24.64;46.11;101509.56;5028125;28;20032;-78
2021/09/08 06:18:07;;;;;;;15.10;7.78;;;;;;;24.70;46.10;101503.28;5028513;28;20114;-78
2021/09/08 06:20:33;;;;;;;18.58;7.70;;;;;;;24.78;46.55;101501.22;5028160;28;20025;-78
2021/09/08 06:22:59;;;;;;;18.17;6.95;;;;;;;24.92;46.33;101504.00;5027376;28;20074;-79
2021/09/08 06:25:25;;;;;;;14.20;6.70;;;;;;;25.04;46.06;101499.63;5043450;28;20096;-79
2021/09/08 06:27:50;;;;;;;17.00;7.45;;;;;;;25.16;45.99;101497.94;5026899;28;20127;-79
2021/09/08 06:30:15;;;;;;;14.80;7.82;;;;;;;25.28;46.39;101504.50;5027002;28;20082;-78
2021/09/08 06:32:41;;;;;;;16.65;7.35;;;;;;;25.40;46.05;101497.38;5026725;28;20477;-79
2021/09/08 06:35:07;;;;;;;23.48;7.93;;;;;;;25.46;45.49;101488.31;5011213;28;20082;-78
2021/09/08 06:37:32;;;;;;;18.50;7.03;;;;;;;25.63;45.50;101497.81;5027878;28;20474;-79
2021/09/08 06:39:57;;;;;;;15.40;6.82;;;;;;;25.75;45.42;101489.78;5027861;28;20033;-80
2021/09/08 06:42:23;;;;;;;15.15;6.53;;;;;;;25.91;45.03;101490.19;5028834;28;20036;-78
2021/09/08 06:44:52;;;;;;;14.20;7.35;;;;;;;26.05;45.34;101494.59;5012118;28;20043;-82
2021/09/08 06:47:21;;;;;;;15.10;7.32;;;;;;;26.17;45.21;101480.25;5028748;28;20033;-80
2021/09/08 06:49:48;;;;;;;21.35;7.78;;;;;;;26.34;45.12;101484.22;5012149;28;20041;-80
2021/09/08 06:52:13;;;;;;;15.68;7.50;;;;;;;26.52;44.93;101489.88;5011156;28;20029;-80
2021/09/08 06:54:38;;;;;;;12.63;7.43;;;;;;;26.62;44.27;101479.22;5043950;28;20535;-80
2021/09/08 06:57:04;;;;;;;17.40;7.72;;;;;;;26.75;44.44;101484.66;5026952;28;20071;-80
2021/09/08 06:59:29;;;;;;;17.38;7.97;;;;;;;26.88;44.46;101473.66;5026776;28;20532;-79
2021/09/08 07:01:55;;;;;;;15.75;7.60;;;;;;;27.04;44.45;101470.38;5010722;28;20045;-79
2021/09/08 07:04:20;;;;;;;13.25;6.65;;;;;;;27.24;43.91;101466.63;5024552;28;20030;-79
2021/09/08 07:06:45;;;;;;;18.33;7.88;;;;;;;27.40;44.19;101474.34;5025473;28;20482;-80
2021/09/08 07:09:11;;;;;;;12.82;7.35;;;;;;;27.55;43.71;101469.38;5009315;28;20159;-78
2021/09/08 07:11:36;;;;;;;15.45;7.85;;;;;;;27.69;43.62;101462.69;5025513;28;20478;-79
2021/09/08 07:14:02;;;;;;;15.35;8.07;;;;;;;27.86;43.84;101458.28;5008436;28;20025;-80
2021/09/08 07:16:28;;;;;;;16.20;7.70;;;;;;;28.00;44.10;101457.06;5010478;28;20108;-79
2021/09/08 07:18:53;;;;;;;13.88;7.72;;;;;;;28.15;43.42;101453.97;5009609;28;20064;-81
2021/09/08 07:21:18;;;;;;;15.63;7.05;;;;;;;28.27;43.45;101455.75;5029578;28;20032;-81
2021/09/08 07:23:44;;;;;;;18.30;7.35;;;;;;;28.39;43.08;101449.47;5013807;28;20025;-80
2021/09/08 07:26:09;;;;;;;14.73;7.32;;;;;;;28.58;42.57;101456.63;5011163;28;20124;-79
2021/09/08 07:28:35;;;;;;;20.30;7.45;;;;;;;28.78;42.35;101471.03;5026355;28;20120;-80
2021/09/08 07:31:00;;;;;;;19.35;8.00;;;;;;;28.95;42.80;101460.19;5042972;28;20400;-81
2021/09/08 07:33:26;;;;;;;17.50;6.72;;;;;;;29.12;42.25;101459.25;5026313;28;20087;-80
2021/09/08 07:35:51;;;;;;;15.23;7.45;;;;;;;29.23;42.28;101450.19;5026371;28;20036;-80
2021/09/08 07:38:18;;;;;;;12.43;7.60;;;;;;;29.36;42.50;101463.81;5025877;28;20032;-80
2021/09/08 07:40:44;;;;;;;16.35;7.95;;;;;;;29.50;41.67;101447.00;5025092;28;20044;-79
2021/09/08 07:43:27;;;;;;;13.23;7.65;;;;;;;29.66;41.88;101447.13;5039653;28;20374;-79
2021/09/08 07:45:52;;;;;;;17.15;8.13;;;;;;;29.80;41.56;101443.09;5008676;28;20038;-80
2021/09/08 07:48:20;;;;;;;12.02;7.10;;;;;;;29.91;41.42;101445.00;4990919;28;20030;-79
2021/09/08 07:50:46;;;;;;;14.23;8.02;;;;;;;30.01;41.17;101438.88;5007232;28;20030;-81
2021/09/08 07:53:11;;;;;;;11.40;7.38;;;;;;;30.14;41.00;101444.13;4991862;28;20033;-80
2021/09/08 07:55:58;;;;;;;14.38;7.57;;;;;;;30.21;40.92;101428.25;5007023;28;20035;-80
2021/09/08 07:58:23;;;;;;;11.80;6.60;;;;;;;30.37;40.78;101433.06;5007273;28;20029;-81
2021/09/08 08:00:57;;;;;;;14.70;7.28;;;;;;;30.42;41.00;101419.34;5008924;28;20068;-79
2021/09/08 08:03:22;;;;;;;14.38;7.78;;;;;;;30.60;40.47;101423.00;4990727;28;20108;-80
2021/09/08 08:05:48;;;;;;;12.13;6.57;;;;;;;30.78;40.53;101437.47;5007001;28;20076;-79
2021/09/08 08:08:14;;;;;;;12.35;7.00;;;;;;;30.91;40.12;101428.00;4987608;28;20044;-81
2021/09/08 08:10:40;;;;;;;11.15;6.95;;;;;;;31.08;40.43;101424.22;5003930;28;20033;-79
2021/09/08 08:13:05;;;;;;;23.25;7.15;;;;;;;31.17;39.67;101416.34;5005060;28;20029;-79
2021/09/08 08:15:31;;;;;;;13.50;6.63;;;;;;;31.40;40.01;101430.03;5003456;28;20112;-80
2021/09/08 08:17:56;;;;;;;12.27;7.03;;;;;;;31.60;39.50;101433.16;5002489;28;20076;-79
2021/09/08 08:20:22;;;;;;;13.45;7.03;;;;;;;31.74;39.65;101427.28;5049076;28;20107;-80
2021/09/08 08:22:48;;;;;;;12.00;6.40;;;;;;;31.92;38.97;101429.75;5043020;28;20032;-81
2021/09/08 08:25:16;;;;;;;13.88;7.70;;;;;;;32.00;38.70;101432.91;5043296;28;20024;-79
2021/09/08 08:27:42;;;;;;;12.70;6.95;;;;;;;32.16;38.69;101436.78;5043772;28;20032;-80
2021/09/08 08:30:09;;;;;;;12.00;7.43;;;;;;;32.25;38.84;101435.22;5043235;28;20021;-80
2021/09/08 08:32:34;;;;;;;12.90;7.68;;;;;;;32.34;38.41;101428.13;5032210;28;20052;-80
2021/09/08 08:35:00;;;;;;;11.15;6.80;;;;;;;32.46;38.65;101437.16;5043610;28;20063;-80
2021/09/08 08:37:25;;;;;;;14.90;7.15;;;;;;;32.58;38.37;101428.75;5049111;28;20397;-80
2021/09/08 08:39:51;;;;;;;15.05;6.22;;;;;;;32.71;37.89;101431.94;5043376;28;20392;-80
2021/09/08 08:42:26;;;;;;;14.15;8.05;;;;;;;32.93;37.69;101431.03;5060593;28;20388;-80
2021/09/08 08:44:52;;;;;;;15.98;6.95;;;;;;;33.07;37.57;101427.63;5003512;28;20026;-79
2021/09/08 08:47:20;;;;;;;15.95;6.75;;;;;;;33.28;37.20;101434.19;4998826;23;20411;-60
2021/09/08 08:49:47;;;;;;;12.38;6.68;;;;;;;33.45;37.74;101429.31;4994504;28;20026;-60
2021/09/08 08:52:14;;;;;;;14.55;6.82;;;;;;;33.62;36.61;101427.25;5010605;28;20014;-60
2021/09/08 08:54:39;;;;;;;11.70;6.88;;;;;;;33.72;36.43;101429.28;4995483;28;20037;-61
2021/09/08 08:57:09;;;;;;;10.65;6.90;;;;;;;33.77;35.95;101426.53;4994277;28;20129;-60
2021/09/08 08:59:40;;;;;;;12.82;7.30;;;;;;;33.82;36.99;101429.34;4994127;28;20030;-60
2021/09/08 09:02:20;;;;;;;13.38;7.18;;;;;;;33.90;36.70;101426.91;4997478;28;20030;-61
2021/09/08 09:04:47;;;;;;;10.93;6.45;;;;;;;33.89;36.55;101425.22;5016622;28;20029;-60
2021/09/08 09:07:42;;;;;;;13.15;7.35;;;;;;;33.96;36.24;101423.03;5014511;28;20053;-61
2021/09/08 09:10:13;;;;;;;9.90;6.35;;;;;;;34.06;35.75;101418.66;5013634;28;20034;-60
2021/09/08 09:12:42;;;;;;;12.90;7.07;;;;;;;34.14;36.78;101418.16;5015227;28;20021;-60
2021/09/08 09:15:10;;;;;;;13.73;6.13;;;;;;;34.24;35.97;101420.97;5014541;28;20259;-60
2021/09/08 09:17:37;;;;;;;12.77;6.78;;;;;;;34.40;35.79;101415.19;5008957;28;20026;-61
2021/09/08 09:20:06;;;;;;;19.52;7.10;;;;;;;34.58;36.09;101413.91;4993706;28;20026;-61
2021/09/08 09:22:42;;;;;;;11.68;7.20;;;;;;;34.75;34.81;101411.72;4994103;28;20510;-61
2021/09/08 09:25:10;;;;;;;11.88;6.22;;;;;;;34.90;35.23;101414.50;4994814;28;20029;-61
2021/09/08 09:27:59;;;;;;;11.55;6.07;;;;;;;35.02;34.70;101406.75;4994597;28;20026;-61
2021/09/08 09:30:28;;;;;;;13.00;6.65;;;;;;;35.13;35.57;101412.34;4994882;28;20028;-60
2021/09/08 09:32:55;;;;;;;11.23;6.43;;;;;;;35.27;34.35;101405.09;4993351;28;20054;-60
2021/09/08 09:35:25;;;;;;;12.85;6.28;;;;;;;35.41;34.54;101398.69;5009889;28;20037;-62
2021/09/08 09:37:52;;;;;;;18.52;6.35;;;;;;;35.63;34.30;101401.19;5009847;28;20026;-62
2021/09/08 09:40:23;;;;;;;9.95;5.90;;;;;;;35.92;34.01;101399.47;4994293;28;20499;-61
2021/09/08 09:42:48;;;;;;;9.77;7.45;;;;;;;36.38;33.41;101396.53;4997932;28;20032;-61
2021/09/08 09:45:14;;;;;;;10.27;6.85;;;;;;;37.08;33.02;101396.09;5014137;28;20413;-61
2021/09/08 09:47:42;;;;;;;12.90;6.10;;;;;;;38.43;31.76;101400.59;5013931;28;20050;-61
2021/09/08 09:50:10;;;;;;;13.65;8.65;;;;;;;40.32;28.57;101403.50;5013542;28;20167;-61
2021/09/08 09:52:37;;;;;;;9.60;6.63;;;;;;;39.85;29.42;101385.09;5013844;28;20105;-61
2021/09/08 09:55:04;;;;;;;11.23;7.00;;;;;;;39.29;29.55;101393.69;5013815;28;20030;-61
2021/09/08 09:57:30;;;;;;;14.27;6.82;;;;;;;38.98;31.09;101382.13;5012920;28;20033;-61
2021/09/08 09:59:57;;;;;;;12.20;5.75;;;;;;;38.89;30.58;101381.16;5014361;28;20029;-61
2021/09/08 10:02:22;;;;;;;10.25;6.15;;;;;;;38.91;30.89;101376.09;5003414;28;20466;-61
2021/09/08 10:04:49;;;;;;;9.70;5.88;;;;;;;39.05;29.81;101374.16;4993373;28;20124;-61
2021/09/08 10:07:17;;;;;;;10.13;6.18;;;;;;;39.29;30.13;101368.44;5009344;28;20034;-61
2021/09/08 10:09:42;;;;;;;13.23;6.25;;;;;;;39.45;30.20;101362.25;4994349;28;20165;-61
2021/09/08 10:12:09;;;;;;;10.18;6.22;;;;;;;39.63;29.46;101357.69;4994389;28;20022;-61
2021/09/08 10:14:34;;;;;;;8.25;5.97;;;;;;;39.79;29.23;101347.88;4994345;28;20435;-61
2021/09/08 10:17:01;;;;;;;9.68;7.25;;;;;;;40.06;28.79;101345.06;5009687;28;20052;-61
2021/09/08 10:19:28;;;;;;;8.88;6.80;;;;;;;40.34;28.42;101337.44;5001085;28;20120;-61
2021/09/08 10:21:55;;;;;;;9.18;6.53;;;;;;;40.65;28.29;101346.81;5013975;28;20018;-61
2021/09/08 10:24:24;;;;;;;7.80;6.25;;;;;;;40.91;28.44;101343.41;5028812;28;20029;-61
2021/09/08 10:26:50;;;;;;;9.90;6.22;;;;;;;41.06;28.42;101334.59;5013915;28;20513;-61
2021/09/08 10:29:16;;;;;;;10.30;6.00;;;;;;;41.24;28.25;101331.56;5015669;28;20080;-61
2021/09/08 10:31:47;;;;;;;9.40;6.82;;;;;;;41.40;27.47;101332.03;5013630;28;20442;-62
2021/09/08 10:34:14;;;;;;;8.13;5.63;;;;;;;41.56;27.82;101329.59;5015559;28;20371;-61
2021/09/08 10:36:40;;;;;;;9.27;6.13;;;;;;;41.64;27.46;101329.66;5014172;28;20109;-61
2021/09/08 10:39:05;;;;;;;14.82;6.03;;;;;;;41.80;27.15;101315.97;5015249;28;20064;-61
2021/09/08 10:41:43;;;;;;;9.65;6.03;;;;;;;42.02;27.04;101306.59;5013620;28;20463;-61
2021/09/08 10:44:09;;;;;;;8.77;5.53;;;;;;;42.13;26.82;101307.94;5000656;28;20371;-61
2021/09/08 10:46:56;;;;;;;8.07;5.38;;;;;;;42.14;26.63;101299.19;4993924;28;20069;-61
2021/09/08 10:49:36;;;;;;;11.90;6.43;;;;;;;42.16;26.32;101298.88;4993973;28;20515;-61
2021/09/08 10:52:02;;;;;;;9.57;6.18;;;;;;;42.11;26.48;101298.97;4993666;28;20026;-61
2021/09/08 10:54:28;;;;;;;10.90;5.10;;;;;;;42.06;26.49;101290.69;4993970;28;20041;-61
2021/09/08 10:56:53;;;;;;;7.05;6.18;;;;;;;42.15;26.58;101283.13;4994020;28;20037;-61
2021/09/08 10:59:19;;;;;;;6.60;5.65;;;;;;;42.25;26.04;101294.06;4994570;28;20105;-61
2021/09/08 11:01:44;;;;;;;7.03;5.95;;;;;;;42.38;26.16;101279.00;5002294;28;20117;-62
2021/09/08 11:04:14;;;;;;;11.18;6.00;;;;;;;42.58;25.90;101274.72;5032518;28;20466;-61
2021/09/08 11:06:43;;;;;;;7.50;5.55;;;;;;;42.73;26.15;101277.84;5032697;28;20029;-61
2021/09/08 11:09:10;;;;;;;8.90;6.70;;;;;;;42.85;25.67;101272.34;5016921;28;20022;-61
2021/09/08 11:12:02;;;;;;;16.80;6.32;;;;;;;42.88;25.52;101268.81;5016908;28;20025;-61
2021/09/08 11:14:53;;;;;;;10.40;5.88;;;;;;;42.92;25.50;101275.47;5014147;28;20042;-61
2021/09/08 11:17:18;;;;;;;12.10;6.45;;;;;;;43.00;25.50;101276.63;5002726;28;20037;-61
2021/09/08 11:19:51;;;;;;;6.95;5.55;;;;;;;43.16;24.97;101257.19;4997206;28;20018;-61